sensor_id;sensor_type;location;lat;lon;timestamp;temperature;humidity
2825;DHT22;1420;51.324;12.344;2023-09-07T00:00:46;17.50;99.90
2825;DHT22;1420;51.324;12.344;2023-09-07T00:03:14;17.30;99.90
2825;DHT22;1420;51.324;12.344;2023-09-07T00:05:41;17.30;99.90
2825;DHT22;1420;51.324;12.344;2023-09-07T00:08:08;17.30;99.90
2825;DHT22;1420;51.324;12.344;2023-09-07T00:10:35;17.40;99.90
2825;DHT22;1420;51.324;12.344;2023-09-07T00:13:03;17.40;99.90
2825;DHT22;1420;51.324;12.344;2023-09-07T00:15:30;17.30;99.90
2825;DHT22;1420;51.324;12.344;2023-09-07T00:17:58;17.30;99.90
2825;DHT22;1420;51.324;12.344;2023-09-07T00:20:26;17.30;99.90
2825;DHT22;1420;51.324;12.344;2023-09-07T00:22:54;17.20;99.90
2825;DHT22;1420;51.324;12.344;2023-09-07T00:25:22;17.10;99.90
2825;DHT22;1420;51.324;12.344;2023-09-07T00:27:50;17.10;99.90
2825;DHT22;1420;51.324;12.344;2023-09-07T00:30:18;17.10;99.90
2825;DHT22;1420;51.324;12.344;2023-09-07T00:32:46;17.10;99.90
2825;DHT22;1420;51.324;12.344;2023-09-07T00:35:14;17.10;99.90
2825;DHT22;1420;51.324;12.344;2023-09-07T00:37:41;17.00;99.90
2825;DHT22;1420;51.324;12.344;2023-09-07T00:40:10;17.00;99.90
2825;DHT22;1420;51.324;12.344;2023-09-07T00:42:37;17.00;99.90
2825;DHT22;1420;51.324;12.344;2023-09-07T00:45:05;17.00;99.90
2825;DHT22;1420;51.324;12.344;2023-09-07T00:47:33;17.00;99.90
2825;DHT22;1420;51.324;12.344;2023-09-07T00:50:00;17.00;99.90
2825;DHT22;1420;51.324;12.344;2023-09-07T00:52:27;17.00;99.90
2825;DHT22;1420;51.324;12.344;2023-09-07T00:54:54;16.90;99.90
2825;DHT22;1420;51.324;12.344;2023-09-07T00:57:21;16.90;99.90
2825;DHT22;1420;51.324;12.344;2023-09-07T00:59:49;16.80;99.90
2825;DHT22;1420;51.324;12.344;2023-09-07T01:02:16;16.80;99.90
2825;DHT22;1420;51.324;12.344;2023-09-07T01:04:43;16.80;99.90
2825;DHT22;1420;51.324;12.344;2023-09-07T01:07:18;16.80;99.90
2825;DHT22;1420;51.324;12.344;2023-09-07T01:09:47;16.80;99.90
2825;DHT22;1420;51.324;12.344;2023-09-07T01:12:15;16.80;99.90
2825;DHT22;1420;51.324;12.344;2023-09-07T01:14:43;16.80;99.90
2825;DHT22;1420;51.324;12.344;2023-09-07T01:17:10;16.70;99.90
2825;DHT22;1420;51.324;12.344;2023-09-07T01:19:37;16.80;99.90
2825;DHT22;1420;51.324;12.344;2023-09-07T01:22:04;16.70;99.90
2825;DHT22;1420;51.324;12.344;2023-09-07T01:24:35;16.80;99.90
2825;DHT22;1420;51.324;12.344;2023-09-07T01:29:59;16.80;99.90
2825;DHT22;1420;51.324;12.344;2023-09-07T01:32:27;16.70;99.90
2825;DHT22;1420;51.324;12.344;2023-09-07T01:34:55;16.60;99.90
2825;DHT22;1420;51.324;12.344;2023-09-07T01:37:23;16.70;99.90
2825;DHT22;1420;51.324;12.344;2023-09-07T01:39:50;16.70;99.90
2825;DHT22;1420;51.324;12.344;2023-09-07T01:42:17;16.60;99.90
2825;DHT22;1420;51.324;12.344;2023-09-07T01:44:44;16.60;99.90
2825;DHT22;1420;51.324;12.344;2023-09-07T01:47:12;16.60;99.90
2825;DHT22;1420;51.324;12.344;2023-09-07T01:49:39;16.60;99.90
2825;DHT22;1420;51.324;12.344;2023-09-07T01:52:06;16.60;99.90
2825;DHT22;1420;51.324;12.344;2023-09-07T01:54:34;16.60;99.90
2825;DHT22;1420;51.324;12.344;2023-09-07T01:57:01;16.50;99.90
2825;DHT22;1420;51.324;12.344;2023-09-07T01:59:28;16.50;99.90
2825;DHT22;1420;51.324;12.344;2023-09-07T02:01:56;16.60;99.90
2825;DHT22;1420;51.324;12.344;2023-09-07T02:04:24;16.40;99.90
2825;DHT22;1420;51.324;12.344;2023-09-07T02:06:52;16.30;99.90
2825;DHT22;1420;51.324;12.344;2023-09-07T02:09:20;16.40;99.90
2825;DHT22;1420;51.324;12.344;2023-09-07T02:11:48;16.30;99.90
2825;DHT22;1420;51.324;12.344;2023-09-07T02:14:15;16.30;99.90
2825;DHT22;1420;51.324;12.344;2023-09-07T02:16:42;16.20;99.90
2825;DHT22;1420;51.324;12.344;2023-09-07T02:19:09;16.20;99.90
2825;DHT22;1420;51.324;12.344;2023-09-07T02:21:36;16.20;99.90
2825;DHT22;1420;51.324;12.344;2023-09-07T02:24:04;16.20;99.90
2825;DHT22;1420;51.324;12.344;2023-09-07T02:26:31;16.20;99.90
2825;DHT22;1420;51.324;12.344;2023-09-07T02:28:58;16.10;99.90
2825;DHT22;1420;51.324;12.344;2023-09-07T02:31:25;16.10;99.90
2825;DHT22;1420;51.324;12.344;2023-09-07T02:33:53;16.00;99.90
2825;DHT22;1420;51.324;12.344;2023-09-07T02:36:20;16.00;99.90
2825;DHT22;1420;51.324;12.344;2023-09-07T02:38:47;15.90;99.90
2825;DHT22;1420;51.324;12.344;2023-09-07T02:41:14;15.90;99.90
2825;DHT22;1420;51.324;12.344;2023-09-07T02:43:41;16.00;99.90
2825;DHT22;1420;51.324;12.344;2023-09-07T02:46:09;16.20;99.90
2825;DHT22;1420;51.324;12.344;2023-09-07T02:48:36;16.30;99.90
2825;DHT22;1420;51.324;12.344;2023-09-07T02:51:03;16.20;99.90
2825;DHT22;1420;51.324;12.344;2023-09-07T02:53:30;16.30;99.90
2825;DHT22;1420;51.324;12.344;2023-09-07T02:55:57;16.50;99.90
2825;DHT22;1420;51.324;12.344;2023-09-07T02:58:25;16.40;99.90
2825;DHT22;1420;51.324;12.344;2023-09-07T03:00:52;16.20;99.90
2825;DHT22;1420;51.324;12.344;2023-09-07T03:03:19;15.90;99.90
2825;DHT22;1420;51.324;12.344;2023-09-07T03:05:46;15.80;99.90
2825;DHT22;1420;51.324;12.344;2023-09-07T03:08:13;16.00;99.90
2825;DHT22;1420;51.324;12.344;2023-09-07T03:10:41;15.90;99.90
2825;DHT22;1420;51.324;12.344;2023-09-07T03:13:08;15.80;99.90
2825;DHT22;1420;51.324;12.344;2023-09-07T03:15:35;15.70;99.90
2825;DHT22;1420;51.324;12.344;2023-09-07T03:18:02;15.60;99.90
2825;DHT22;1420;51.324;12.344;2023-09-07T03:20:32;15.40;99.90
2825;DHT22;1420;51.324;12.344;2023-09-07T03:22:57;15.40;99.90
2825;DHT22;1420;51.324;12.344;2023-09-07T03:25:24;15.30;99.90
2825;DHT22;1420;51.324;12.344;2023-09-07T03:27:51;15.30;99.90
2825;DHT22;1420;51.324;12.344;2023-09-07T03:30:19;15.20;99.90
2825;DHT22;1420;51.324;12.344;2023-09-07T03:32:46;15.10;99.90
2825;DHT22;1420;51.324;12.344;2023-09-07T03:35:13;15.00;99.90
2825;DHT22;1420;51.324;12.344;2023-09-07T03:37:41;14.90;99.90
2825;DHT22;1420;51.324;12.344;2023-09-07T03:40:08;14.90;99.90
2825;DHT22;1420;51.324;12.344;2023-09-07T03:42:35;14.80;99.90
2825;DHT22;1420;51.324;12.344;2023-09-07T03:45:03;14.70;99.90
2825;DHT22;1420;51.324;12.344;2023-09-07T03:47:30;14.70;99.90
2825;DHT22;1420;51.324;12.344;2023-09-07T03:49:57;14.60;99.90
2825;DHT22;1420;51.324;12.344;2023-09-07T03:52:24;14.60;99.90
2825;DHT22;1420;51.324;12.344;2023-09-07T03:54:53;14.60;99.90
2825;DHT22;1420;51.324;12.344;2023-09-07T03:57:19;14.60;99.90
2825;DHT22;1420;51.324;12.344;2023-09-07T03:59:46;14.60;99.90
2825;DHT22;1420;51.324;12.344;2023-09-07T04:02:13;14.60;99.90
2825;DHT22;1420;51.324;12.344;2023-09-07T04:04:40;14.60;99.90
2825;DHT22;1420;51.324;12.344;2023-09-07T04:07:07;14.50;99.90
2825;DHT22;1420;51.324;12.344;2023-09-07T04:09:35;14.50;99.90
2825;DHT22;1420;51.324;12.344;2023-09-07T04:12:02;14.60;99.90
2825;DHT22;1420;51.324;12.344;2023-09-07T04:14:29;14.60;99.90
2825;DHT22;1420;51.324;12.344;2023-09-07T04:16:56;14.70;99.90
2825;DHT22;1420;51.324;12.344;2023-09-07T04:19:24;14.70;99.90
2825;DHT22;1420;51.324;12.344;2023-09-07T04:21:51;14.60;99.90
2825;DHT22;1420;51.324;12.344;2023-09-07T04:24:18;14.60;99.90
2825;DHT22;1420;51.324;12.344;2023-09-07T04:26:47;14.60;99.90
2825;DHT22;1420;51.324;12.344;2023-09-07T04:29:12;14.50;99.90
2825;DHT22;1420;51.324;12.344;2023-09-07T04:31:40;14.50;99.90
2825;DHT22;1420;51.324;12.344;2023-09-07T04:34:07;14.60;99.90
2825;DHT22;1420;51.324;12.344;2023-09-07T04:36:35;14.70;99.90
2825;DHT22;1420;51.324;12.344;2023-09-07T04:39:03;14.70;99.90
2825;DHT22;1420;51.324;12.344;2023-09-07T04:41:30;14.90;99.90
2825;DHT22;1420;51.324;12.344;2023-09-07T04:43:57;14.90;99.90
2825;DHT22;1420;51.324;12.344;2023-09-07T04:46:24;14.90;99.90
2825;DHT22;1420;51.324;12.344;2023-09-07T04:48:52;15.00;99.90
2825;DHT22;1420;51.324;12.344;2023-09-07T04:51:19;15.00;99.90
2825;DHT22;1420;51.324;12.344;2023-09-07T04:53:46;15.10;99.90
2825;DHT22;1420;51.324;12.344;2023-09-07T04:56:13;15.20;99.90
2825;DHT22;1420;51.324;12.344;2023-09-07T04:58:40;15.40;99.90
2825;DHT22;1420;51.324;12.344;2023-09-07T05:01:08;15.10;99.90
2825;DHT22;1420;51.324;12.344;2023-09-07T05:03:36;14.90;99.90
2825;DHT22;1420;51.324;12.344;2023-09-07T05:06:03;14.90;99.90
2825;DHT22;1420;51.324;12.344;2023-09-07T05:08:30;14.80;99.90
2825;DHT22;1420;51.324;12.344;2023-09-07T05:10:58;14.70;99.90
2825;DHT22;1420;51.324;12.344;2023-09-07T05:13:25;14.80;99.90
2825;DHT22;1420;51.324;12.344;2023-09-07T05:15:52;14.90;99.90
2825;DHT22;1420;51.324;12.344;2023-09-07T05:18:19;14.90;99.90
2825;DHT22;1420;51.324;12.344;2023-09-07T05:20:46;15.00;99.90
2825;DHT22;1420;51.324;12.344;2023-09-07T05:23:16;15.00;99.90
2825;DHT22;1420;51.324;12.344;2023-09-07T05:25:44;15.10;99.90
2825;DHT22;1420;51.324;12.344;2023-09-07T05:28:12;15.30;99.90
2825;DHT22;1420;51.324;12.344;2023-09-07T05:30:37;15.40;99.90
2825;DHT22;1420;51.324;12.344;2023-09-07T05:33:05;15.40;99.90
2825;DHT22;1420;51.324;12.344;2023-09-07T05:35:32;15.40;99.90
2825;DHT22;1420;51.324;12.344;2023-09-07T05:37:59;15.40;99.90
2825;DHT22;1420;51.324;12.344;2023-09-07T05:40:26;15.60;99.90
2825;DHT22;1420;51.324;12.344;2023-09-07T05:42:53;15.70;99.90
2825;DHT22;1420;51.324;12.344;2023-09-07T05:45:21;16.10;99.90
2825;DHT22;1420;51.324;12.344;2023-09-07T05:47:48;16.90;99.90
2825;DHT22;1420;51.324;12.344;2023-09-07T05:50:15;17.90;99.90
2825;DHT22;1420;51.324;12.344;2023-09-07T05:52:42;18.30;99.90
2825;DHT22;1420;51.324;12.344;2023-09-07T05:55:10;19.20;99.90
2825;DHT22;1420;51.324;12.344;2023-09-07T05:57:37;19.90;99.90
2825;DHT22;1420;51.324;12.344;2023-09-07T06:00:05;20.30;99.90
2825;DHT22;1420;51.324;12.344;2023-09-07T06:02:32;20.70;99.90
2825;DHT22;1420;51.324;12.344;2023-09-07T06:04:59;21.10;99.90
2825;DHT22;1420;51.324;12.344;2023-09-07T06:07:26;21.30;99.90
2825;DHT22;1420;51.324;12.344;2023-09-07T06:09:54;22.10;99.90
2825;DHT22;1420;51.324;12.344;2023-09-07T06:12:21;22.20;99.90
2825;DHT22;1420;51.324;12.344;2023-09-07T06:14:48;22.20;99.90
2825;DHT22;1420;51.324;12.344;2023-09-07T06:17:16;22.20;99.90
2825;DHT22;1420;51.324;12.344;2023-09-07T06:19:43;23.00;99.90
2825;DHT22;1420;51.324;12.344;2023-09-07T06:22:11;23.30;99.90
2825;DHT22;1420;51.324;12.344;2023-09-07T06:24:38;23.10;99.90
2825;DHT22;1420;51.324;12.344;2023-09-07T06:27:05;22.30;99.90
2825;DHT22;1420;51.324;12.344;2023-09-07T06:29:32;22.80;99.90
2825;DHT22;1420;51.324;12.344;2023-09-07T06:32:00;23.40;99.90
2825;DHT22;1420;51.324;12.344;2023-09-07T06:34:27;23.50;98.70
2825;DHT22;1420;51.324;12.344;2023-09-07T06:36:54;24.10;93.00
2825;DHT22;1420;51.324;12.344;2023-09-07T06:39:21;24.00;92.80
2825;DHT22;1420;51.324;12.344;2023-09-07T06:41:48;24.10;90.10
2825;DHT22;1420;51.324;12.344;2023-09-07T06:44:16;24.30;90.30
2825;DHT22;1420;51.324;12.344;2023-09-07T06:46:43;24.70;86.40
2825;DHT22;1420;51.324;12.344;2023-09-07T06:49:11;25.20;81.20
2825;DHT22;1420;51.324;12.344;2023-09-07T06:51:38;24.90;79.00
2825;DHT22;1420;51.324;12.344;2023-09-07T06:54:05;24.60;83.30
2825;DHT22;1420;51.324;12.344;2023-09-07T06:56:32;24.30;84.70
2825;DHT22;1420;51.324;12.344;2023-09-07T06:59:00;25.00;77.90
2825;DHT22;1420;51.324;12.344;2023-09-07T07:01:27;25.20;77.00
2825;DHT22;1420;51.324;12.344;2023-09-07T07:03:55;25.30;73.20
2825;DHT22;1420;51.324;12.344;2023-09-07T07:06:23;25.20;75.50
2825;DHT22;1420;51.324;12.344;2023-09-07T07:08:51;26.00;69.60
2825;DHT22;1420;51.324;12.344;2023-09-07T07:11:19;25.20;73.50
2825;DHT22;1420;51.324;12.344;2023-09-07T07:13:46;25.10;73.30
2825;DHT22;1420;51.324;12.344;2023-09-07T07:16:14;26.10;68.00
2825;DHT22;1420;51.324;12.344;2023-09-07T07:18:41;25.10;71.90
2825;DHT22;1420;51.324;12.344;2023-09-07T07:21:08;24.80;74.70
2825;DHT22;1420;51.324;12.344;2023-09-07T07:23:35;25.70;69.40
2825;DHT22;1420;51.324;12.344;2023-09-07T07:26:02;25.50;68.50
2825;DHT22;1420;51.324;12.344;2023-09-07T07:28:30;26.80;62.30
2825;DHT22;1420;51.324;12.344;2023-09-07T07:30:57;26.40;63.30
2825;DHT22;1420;51.324;12.344;2023-09-07T07:33:24;26.10;65.10
2825;DHT22;1420;51.324;12.344;2023-09-07T07:35:51;25.90;62.70
2825;DHT22;1420;51.324;12.344;2023-09-07T07:38:18;26.00;62.40
2825;DHT22;1420;51.324;12.344;2023-09-07T07:40:46;26.20;61.00
2825;DHT22;1420;51.324;12.344;2023-09-07T07:43:13;25.60;64.60
2825;DHT22;1420;51.324;12.344;2023-09-07T07:45:41;26.60;60.10
2825;DHT22;1420;51.324;12.344;2023-09-07T07:48:08;26.50;60.10
2825;DHT22;1420;51.324;12.344;2023-09-07T07:50:37;26.40;61.80
2825;DHT22;1420;51.324;12.344;2023-09-07T07:53:04;26.40;61.80
2825;DHT22;1420;51.324;12.344;2023-09-07T07:55:33;27.10;59.00
2825;DHT22;1420;51.324;12.344;2023-09-07T07:57:58;27.20;59.30
2825;DHT22;1420;51.324;12.344;2023-09-07T08:00:25;27.20;59.60
2825;DHT22;1420;51.324;12.344;2023-09-07T08:02:52;27.50;58.20
2825;DHT22;1420;51.324;12.344;2023-09-07T08:05:20;26.80;60.40
2825;DHT22;1420;51.324;12.344;2023-09-07T08:07:47;27.60;57.90
2825;DHT22;1420;51.324;12.344;2023-09-07T08:10:14;27.50;57.60
2825;DHT22;1420;51.324;12.344;2023-09-07T08:12:45;27.70;57.40
2825;DHT22;1420;51.324;12.344;2023-09-07T08:15:12;26.80;61.20
2825;DHT22;1420;51.324;12.344;2023-09-07T08:17:40;27.00;60.90
2825;DHT22;1420;51.324;12.344;2023-09-07T08:20:07;27.00;58.90
2825;DHT22;1420;51.324;12.344;2023-09-07T08:22:34;26.70;61.00
2825;DHT22;1420;51.324;12.344;2023-09-07T08:25:01;27.00;59.10
2825;DHT22;1420;51.324;12.344;2023-09-07T08:27:28;27.30;59.00
2825;DHT22;1420;51.324;12.344;2023-09-07T08:29:56;27.40;59.00
2825;DHT22;1420;51.324;12.344;2023-09-07T08:32:23;27.50;58.60
2825;DHT22;1420;51.324;12.344;2023-09-07T08:34:50;26.90;59.80
2825;DHT22;1420;51.324;12.344;2023-09-07T08:37:18;27.30;58.90
2825;DHT22;1420;51.324;12.344;2023-09-07T08:39:45;27.40;58.90
2825;DHT22;1420;51.324;12.344;2023-09-07T08:42:12;27.70;58.30
2825;DHT22;1420;51.324;12.344;2023-09-07T08:44:39;28.10;57.20
2825;DHT22;1420;51.324;12.344;2023-09-07T08:47:06;28.10;56.80
2825;DHT22;1420;51.324;12.344;2023-09-07T08:49:34;28.50;56.10
2825;DHT22;1420;51.324;12.344;2023-09-07T08:52:02;27.60;58.00
2825;DHT22;1420;51.324;12.344;2023-09-07T08:54:30;27.90;57.00
2825;DHT22;1420;51.324;12.344;2023-09-07T08:56:57;27.60;57.50
2825;DHT22;1420;51.324;12.344;2023-09-07T08:59:24;27.70;57.20
2825;DHT22;1420;51.324;12.344;2023-09-07T09:01:55;27.90;57.00
2825;DHT22;1420;51.324;12.344;2023-09-07T09:04:19;27.50;57.10
2825;DHT22;1420;51.324;12.344;2023-09-07T09:06:46;27.50;57.10
2825;DHT22;1420;51.324;12.344;2023-09-07T09:09:21;27.70;56.60
2825;DHT22;1420;51.324;12.344;2023-09-07T09:11:41;27.60;56.30
2825;DHT22;1420;51.324;12.344;2023-09-07T09:14:08;28.30;54.20
2825;DHT22;1420;51.324;12.344;2023-09-07T09:16:35;27.80;54.70
2825;DHT22;1420;51.324;12.344;2023-09-07T09:19:02;27.60;55.70
2825;DHT22;1420;51.324;12.344;2023-09-07T09:21:30;27.70;55.10
2825;DHT22;1420;51.324;12.344;2023-09-07T09:23:57;28.00;55.00
2825;DHT22;1420;51.324;12.344;2023-09-07T09:26:24;27.70;54.60
2825;DHT22;1420;51.324;12.344;2023-09-07T09:28:51;28.00;54.90
2825;DHT22;1420;51.324;12.344;2023-09-07T09:31:18;27.90;55.10
2825;DHT22;1420;51.324;12.344;2023-09-07T09:33:48;28.40;54.60
2825;DHT22;1420;51.324;12.344;2023-09-07T09:36:15;28.60;52.80
2825;DHT22;1420;51.324;12.344;2023-09-07T09:38:46;28.50;52.00
2825;DHT22;1420;51.324;12.344;2023-09-07T09:41:09;28.70;53.10
2825;DHT22;1420;51.324;12.344;2023-09-07T09:43:36;28.60;52.90
2825;DHT22;1420;51.324;12.344;2023-09-07T09:46:04;28.40;53.80
2825;DHT22;1420;51.324;12.344;2023-09-07T09:48:31;28.90;52.90
2825;DHT22;1420;51.324;12.344;2023-09-07T09:50:58;29.00;52.70
2825;DHT22;1420;51.324;12.344;2023-09-07T09:53:25;28.60;52.60
2825;DHT22;1420;51.324;12.344;2023-09-07T09:55:52;28.40;53.60
2825;DHT22;1420;51.324;12.344;2023-09-07T09:58:20;28.60;54.00
2825;DHT22;1420;51.324;12.344;2023-09-07T10:00:48;28.80;53.90
2825;DHT22;1420;51.324;12.344;2023-09-07T10:03:19;28.00;55.70
2825;DHT22;1420;51.324;12.344;2023-09-07T10:05:44;27.90;55.30
2825;DHT22;1420;51.324;12.344;2023-09-07T10:08:13;28.70;53.30
2825;DHT22;1420;51.324;12.344;2023-09-07T10:10:40;28.70;52.50
2825;DHT22;1420;51.324;12.344;2023-09-07T10:13:07;28.70;52.50
2825;DHT22;1420;51.324;12.344;2023-09-07T10:15:34;28.70;52.60
2825;DHT22;1420;51.324;12.344;2023-09-07T10:18:05;28.70;52.10
2825;DHT22;1420;51.324;12.344;2023-09-07T10:20:51;28.50;51.60
2825;DHT22;1420;51.324;12.344;2023-09-07T10:23:17;28.50;52.30
2825;DHT22;1420;51.324;12.344;2023-09-07T10:25:50;28.40;52.90
2825;DHT22;1420;51.324;12.344;2023-09-07T10:28:20;27.70;53.00
2825;DHT22;1420;51.324;12.344;2023-09-07T10:30:56;27.80;53.80
2825;DHT22;1420;51.324;12.344;2023-09-07T10:33:20;28.50;52.00
2825;DHT22;1420;51.324;12.344;2023-09-07T10:35:46;28.30;52.20
2825;DHT22;1420;51.324;12.344;2023-09-07T10:38:14;28.40;51.60
2825;DHT22;1420;51.324;12.344;2023-09-07T10:40:44;27.90;52.70
2825;DHT22;1420;51.324;12.344;2023-09-07T10:43:11;28.10;50.50
2825;DHT22;1420;51.324;12.344;2023-09-07T10:45:38;28.50;51.10
2825;DHT22;1420;51.324;12.344;2023-09-07T10:48:05;28.60;49.90
2825;DHT22;1420;51.324;12.344;2023-09-07T10:50:47;28.40;50.00
2825;DHT22;1420;51.324;12.344;2023-09-07T10:53:15;28.30;50.70
2825;DHT22;1420;51.324;12.344;2023-09-07T10:55:42;28.10;50.90
2825;DHT22;1420;51.324;12.344;2023-09-07T10:58:10;27.80;49.40
2825;DHT22;1420;51.324;12.344;2023-09-07T11:00:37;27.60;49.20
2825;DHT22;1420;51.324;12.344;2023-09-07T11:03:07;27.90;49.40
2825;DHT22;1420;51.324;12.344;2023-09-07T11:05:34;28.10;48.80
2825;DHT22;1420;51.324;12.344;2023-09-07T11:08:01;28.50;48.10
2825;DHT22;1420;51.324;12.344;2023-09-07T11:10:31;28.80;47.10
2825;DHT22;1420;51.324;12.344;2023-09-07T11:12:56;28.70;45.80
2825;DHT22;1420;51.324;12.344;2023-09-07T11:15:23;28.60;46.00
2825;DHT22;1420;51.324;12.344;2023-09-07T11:17:50;28.40;45.70
2825;DHT22;1420;51.324;12.344;2023-09-07T11:20:20;28.20;45.50
2825;DHT22;1420;51.324;12.344;2023-09-07T11:22:44;28.70;44.70
2825;DHT22;1420;51.324;12.344;2023-09-07T11:25:12;28.60;44.00
2825;DHT22;1420;51.324;12.344;2023-09-07T11:27:39;28.50;43.60
2825;DHT22;1420;51.324;12.344;2023-09-07T11:30:06;28.30;43.60
2825;DHT22;1420;51.324;12.344;2023-09-07T11:32:34;28.10;43.00
2825;DHT22;1420;51.324;12.344;2023-09-07T11:35:01;27.90;42.80
2825;DHT22;1420;51.324;12.344;2023-09-07T11:37:28;28.10;43.10
2825;DHT22;1420;51.324;12.344;2023-09-07T11:39:55;28.20;42.60
2825;DHT22;1420;51.324;12.344;2023-09-07T11:42:23;28.30;43.20
2825;DHT22;1420;51.324;12.344;2023-09-07T11:44:50;28.00;44.00
2825;DHT22;1420;51.324;12.344;2023-09-07T11:47:18;28.50;43.00
2825;DHT22;1420;51.324;12.344;2023-09-07T11:49:46;28.50;44.10
2825;DHT22;1420;51.324;12.344;2023-09-07T11:52:13;28.40;44.00
2825;DHT22;1420;51.324;12.344;2023-09-07T11:54:40;28.30;44.50
2825;DHT22;1420;51.324;12.344;2023-09-07T11:57:07;28.50;44.10
2825;DHT22;1420;51.324;12.344;2023-09-07T11:59:35;28.50;45.50
2825;DHT22;1420;51.324;12.344;2023-09-07T12:02:02;28.50;45.80
2825;DHT22;1420;51.324;12.344;2023-09-07T12:04:29;28.70;45.20
2825;DHT22;1420;51.324;12.344;2023-09-07T12:06:57;28.70;45.50
2825;DHT22;1420;51.324;12.344;2023-09-07T12:09:24;28.60;44.80
2825;DHT22;1420;51.324;12.344;2023-09-07T12:11:51;28.90;45.40
2825;DHT22;1420;51.324;12.344;2023-09-07T12:14:19;28.30;45.70
2825;DHT22;1420;51.324;12.344;2023-09-07T12:16:46;28.20;46.50
2825;DHT22;1420;51.324;12.344;2023-09-07T12:19:13;28.10;47.00
2825;DHT22;1420;51.324;12.344;2023-09-07T12:21:40;28.30;45.50
2825;DHT22;1420;51.324;12.344;2023-09-07T12:24:08;28.70;44.20
2825;DHT22;1420;51.324;12.344;2023-09-07T12:26:35;28.60;43.90
2825;DHT22;1420;51.324;12.344;2023-09-07T12:29:02;28.40;43.40
2825;DHT22;1420;51.324;12.344;2023-09-07T12:31:29;28.60;44.00
2825;DHT22;1420;51.324;12.344;2023-09-07T12:36:31;28.50;42.70
2825;DHT22;1420;51.324;12.344;2023-09-07T12:38:59;28.40;43.00
2825;DHT22;1420;51.324;12.344;2023-09-07T12:41:29;28.50;43.40
2825;DHT22;1420;51.324;12.344;2023-09-07T12:43:55;28.50;43.40
2825;DHT22;1420;51.324;12.344;2023-09-07T12:46:22;28.60;43.40
2825;DHT22;1420;51.324;12.344;2023-09-07T12:48:50;28.70;42.70
2825;DHT22;1420;51.324;12.344;2023-09-07T12:51:17;28.70;42.80
2825;DHT22;1420;51.324;12.344;2023-09-07T12:53:45;28.30;41.30
2825;DHT22;1420;51.324;12.344;2023-09-07T12:56:12;28.20;42.00
2825;DHT22;1420;51.324;12.344;2023-09-07T12:58:39;28.40;41.50
2825;DHT22;1420;51.324;12.344;2023-09-07T13:01:08;28.60;41.90
2825;DHT22;1420;51.324;12.344;2023-09-07T13:03:34;28.50;41.20
2825;DHT22;1420;51.324;12.344;2023-09-07T13:06:02;28.50;41.20
2825;DHT22;1420;51.324;12.344;2023-09-07T13:08:29;28.50;40.80
2825;DHT22;1420;51.324;12.344;2023-09-07T13:10:57;28.60;42.10
2825;DHT22;1420;51.324;12.344;2023-09-07T13:13:25;28.30;41.30
2825;DHT22;1420;51.324;12.344;2023-09-07T13:15:54;28.40;41.20
2825;DHT22;1420;51.324;12.344;2023-09-07T13:18:21;28.40;41.20
2825;DHT22;1420;51.324;12.344;2023-09-07T13:20:48;28.40;41.30
2825;DHT22;1420;51.324;12.344;2023-09-07T13:23:16;28.20;40.50
2825;DHT22;1420;51.324;12.344;2023-09-07T13:25:43;28.40;41.00
2825;DHT22;1420;51.324;12.344;2023-09-07T13:28:10;28.50;41.00
2825;DHT22;1420;51.324;12.344;2023-09-07T13:30:37;28.50;41.30
2825;DHT22;1420;51.324;12.344;2023-09-07T13:33:04;28.50;40.80
2825;DHT22;1420;51.324;12.344;2023-09-07T13:35:32;28.60;41.10
2825;DHT22;1420;51.324;12.344;2023-09-07T13:37:59;28.60;41.60
2825;DHT22;1420;51.324;12.344;2023-09-07T13:40:26;28.60;41.40
2825;DHT22;1420;51.324;12.344;2023-09-07T13:42:53;28.30;41.00
2825;DHT22;1420;51.324;12.344;2023-09-07T13:45:21;28.20;41.30
2825;DHT22;1420;51.324;12.344;2023-09-07T13:47:48;28.50;42.50
2825;DHT22;1420;51.324;12.344;2023-09-07T13:50:15;28.50;40.80
2825;DHT22;1420;51.324;12.344;2023-09-07T13:52:43;28.60;40.50
2825;DHT22;1420;51.324;12.344;2023-09-07T13:55:10;28.50;41.60
2825;DHT22;1420;51.324;12.344;2023-09-07T13:57:41;28.40;41.50
2825;DHT22;1420;51.324;12.344;2023-09-07T14:00:12;28.50;41.30
2825;DHT22;1420;51.324;12.344;2023-09-07T14:02:40;28.40;41.40
2825;DHT22;1420;51.324;12.344;2023-09-07T14:05:08;28.40;41.70
2825;DHT22;1420;51.324;12.344;2023-09-07T14:07:36;28.40;41.70
2825;DHT22;1420;51.324;12.344;2023-09-07T14:10:03;28.50;41.90
2825;DHT22;1420;51.324;12.344;2023-09-07T14:12:30;28.30;41.00
2825;DHT22;1420;51.324;12.344;2023-09-07T14:14:58;28.30;41.60
2825;DHT22;1420;51.324;12.344;2023-09-07T14:17:26;28.20;41.50
2825;DHT22;1420;51.324;12.344;2023-09-07T14:19:54;28.20;41.50
2825;DHT22;1420;51.324;12.344;2023-09-07T14:22:21;28.10;41.40
2825;DHT22;1420;51.324;12.344;2023-09-07T14:24:49;28.20;42.10
2825;DHT22;1420;51.324;12.344;2023-09-07T14:27:17;28.10;41.70
2825;DHT22;1420;51.324;12.344;2023-09-07T14:29:45;28.20;42.00
2825;DHT22;1420;51.324;12.344;2023-09-07T14:32:14;28.30;41.80
2825;DHT22;1420;51.324;12.344;2023-09-07T14:34:41;28.30;41.80
2825;DHT22;1420;51.324;12.344;2023-09-07T14:37:08;28.20;42.00
2825;DHT22;1420;51.324;12.344;2023-09-07T14:39:36;28.20;41.40
2825;DHT22;1420;51.324;12.344;2023-09-07T14:42:03;28.10;41.90
2825;DHT22;1420;51.324;12.344;2023-09-07T14:44:31;28.00;41.20
2825;DHT22;1420;51.324;12.344;2023-09-07T14:46:59;28.10;41.70
2825;DHT22;1420;51.324;12.344;2023-09-07T14:49:27;28.00;40.80
2825;DHT22;1420;51.324;12.344;2023-09-07T14:51:55;28.00;41.00
2825;DHT22;1420;51.324;12.344;2023-09-07T14:54:23;28.10;40.50
2825;DHT22;1420;51.324;12.344;2023-09-07T14:56:51;28.00;41.40
2825;DHT22;1420;51.324;12.344;2023-09-07T14:59:19;27.90;42.50
2825;DHT22;1420;51.324;12.344;2023-09-07T15:01:46;27.90;41.70
2825;DHT22;1420;51.324;12.344;2023-09-07T15:04:14;28.00;41.50
2825;DHT22;1420;51.324;12.344;2023-09-07T15:06:41;27.90;41.70
2825;DHT22;1420;51.324;12.344;2023-09-07T15:09:08;27.90;41.20
2825;DHT22;1420;51.324;12.344;2023-09-07T15:11:35;28.00;41.30
2825;DHT22;1420;51.324;12.344;2023-09-07T15:14:03;27.90;41.20
2825;DHT22;1420;51.324;12.344;2023-09-07T15:16:30;28.00;40.40
2825;DHT22;1420;51.324;12.344;2023-09-07T15:18:57;27.90;40.50
2825;DHT22;1420;51.324;12.344;2023-09-07T15:21:24;27.90;39.90
2825;DHT22;1420;51.324;12.344;2023-09-07T15:23:51;27.90;41.30
2825;DHT22;1420;51.324;12.344;2023-09-07T15:26:19;27.90;40.20
2825;DHT22;1420;51.324;12.344;2023-09-07T15:28:46;28.00;40.80
2825;DHT22;1420;51.324;12.344;2023-09-07T15:31:13;28.00;39.30
2825;DHT22;1420;51.324;12.344;2023-09-07T15:33:44;28.00;39.30
2825;DHT22;1420;51.324;12.344;2023-09-07T15:36:14;28.10;38.90
2825;DHT22;1420;51.324;12.344;2023-09-07T15:38:42;28.00;39.10
2825;DHT22;1420;51.324;12.344;2023-09-07T15:41:09;28.00;39.30
2825;DHT22;1420;51.324;12.344;2023-09-07T15:43:36;28.00;38.50
2825;DHT22;1420;51.324;12.344;2023-09-07T15:46:03;28.10;37.90
2825;DHT22;1420;51.324;12.344;2023-09-07T15:48:30;28.00;38.50
2825;DHT22;1420;51.324;12.344;2023-09-07T15:50:58;27.90;38.80